createdAt,value
2023-05-06T00:01:00.446Z,55.38
2023-05-06T00:03:31.565Z,55.42
2023-05-06T00:06:02.882Z,55.69
2023-05-06T00:08:32.940Z,55.83
2023-05-06T00:11:01.965Z,55.58
2023-05-06T00:13:33.601Z,55.80
2023-05-06T00:16:03.433Z,55.74
2023-05-06T00:18:32.823Z,55.99
2023-05-06T00:21:01.962Z,55.72
2023-05-06T00:23:31.830Z,55.78
2023-05-06T00:26:01.063Z,55.90
2023-05-06T00:28:30.177Z,56.07
2023-05-06T00:31:00.471Z,55.46
2023-05-06T00:33:32.594Z,56.07
2023-05-06T00:36:01.847Z,55.57
2023-05-06T00:38:32.770Z,55.98
2023-05-06T00:41:03.115Z,55.83
2023-05-06T00:43:32.691Z,56.20
2023-05-06T00:46:02.155Z,55.92
2023-05-06T00:48:31.824Z,56.07
2023-05-06T00:51:01.102Z,56.13
2023-05-06T00:53:33.509Z,56.07
2023-05-06T00:56:03.614Z,55.66
2023-05-06T00:58:33.459Z,56.23
2023-05-06T01:01:03.531Z,56.05
2023-05-06T01:03:33.478Z,56.02
2023-05-06T01:06:14.221Z,56.19
2023-05-06T01:08:57.784Z,56.16
2023-05-06T01:11:37.405Z,56.21
2023-05-06T01:14:13.768Z,55.51
2023-05-06T01:16:43.867Z,55.80
2023-05-06T01:19:28.647Z,56.11
2023-05-06T01:22:01.898Z,55.79
2023-05-06T01:24:39.064Z,55.66
2023-05-06T01:27:09.073Z,55.62
2023-05-06T01:29:42.442Z,55.35
2023-05-06T01:32:36.552Z,55.43
2023-05-06T01:35:17.396Z,55.44
2023-05-06T01:37:52.667Z,55.03
2023-05-06T01:40:25.424Z,55.25
2023-05-06T01:42:56.080Z,55.07
2023-05-06T01:45:28.538Z,55.91
2023-05-06T01:47:58.774Z,55.79
2023-05-06T01:50:29.183Z,55.12
2023-05-06T01:53:03.474Z,55.57
2023-05-06T01:55:34.479Z,55.78
2023-05-06T01:58:06.241Z,55.77
2023-05-06T02:00:35.640Z,55.50
2023-05-06T02:03:04.629Z,55.78
2023-05-06T02:05:34.522Z,55.05
2023-05-06T02:08:04.377Z,55.08
2023-05-06T02:10:33.619Z,55.38
2023-05-06T02:13:10.958Z,55.47
2023-05-06T02:15:39.803Z,55.03
2023-05-06T02:18:13.848Z,55.35
2023-05-06T02:20:43.497Z,55.67
2023-05-06T02:23:17.292Z,55.70
2023-05-06T02:25:46.644Z,55.26
2023-05-06T02:28:15.828Z,55.49
2023-05-06T02:30:45.178Z,55.72
2023-05-06T02:33:14.386Z,55.58
2023-05-06T02:35:43.237Z,55.93
2023-05-06T02:38:12.124Z,55.49
2023-05-06T02:40:41.030Z,55.88
2023-05-06T02:43:09.858Z,55.87
2023-05-06T02:45:38.900Z,55.70
2023-05-06T02:48:08.208Z,55.32
2023-05-06T02:50:39.245Z,55.77
2023-05-06T02:53:08.449Z,55.97
2023-05-06T02:55:37.342Z,55.62
2023-05-06T02:58:06.665Z,55.45
2023-05-06T03:00:35.914Z,55.68
2023-05-06T03:03:05.108Z,55.48
2023-05-06T03:05:34.071Z,55.72
2023-05-06T03:08:03.028Z,55.78
2023-05-06T03:10:33.591Z,55.11
2023-05-06T03:13:02.843Z,55.82
2023-05-06T03:15:34.484Z,55.06
2023-05-06T03:18:03.572Z,55.59
2023-05-06T03:20:33.733Z,55.75
2023-05-06T03:23:03.225Z,55.16
2023-05-06T03:25:33.153Z,55.46
2023-05-06T03:28:02.246Z,55.65
2023-05-06T03:30:32.510Z,55.14
2023-05-06T03:33:02.731Z,55.24
2023-05-06T03:35:33.810Z,55.31
2023-05-06T03:38:03.314Z,55.44
2023-05-06T03:40:38.878Z,55.68
2023-05-06T03:43:08.115Z,56.12
2023-05-06T03:45:37.750Z,55.65
2023-05-06T03:48:07.446Z,56.07
2023-05-06T03:50:40.962Z,56.00
2023-05-06T03:53:10.686Z,55.59
2023-05-06T03:55:41.703Z,56.22
2023-05-06T03:58:12.908Z,56.02
2023-05-06T04:00:43.716Z,55.43
2023-05-06T04:03:12.817Z,55.91
2023-05-06T04:05:48.661Z,55.46
2023-05-06T04:08:18.670Z,55.62
2023-05-06T04:10:48.316Z,55.49
2023-05-06T04:13:28.249Z,55.62
2023-05-06T04:15:59.513Z,55.95
2023-05-06T04:18:33.829Z,55.84
2023-05-06T04:21:07.776Z,55.92
2023-05-06T04:23:42.189Z,56.40
2023-05-06T04:26:12.580Z,55.96
2023-05-06T04:28:42.849Z,55.74
2023-05-06T04:31:14.582Z,55.69
2023-05-06T04:33:48.240Z,55.89
2023-05-06T04:36:20.232Z,55.66
2023-05-06T04:38:57.845Z,55.71
2023-05-06T04:41:31.420Z,56.40
2023-05-06T04:44:01.055Z,56.01
2023-05-06T04:46:34.762Z,55.67
2023-05-06T04:49:04.490Z,56.47
2023-05-06T04:51:33.687Z,56.05
2023-05-06T04:54:03.556Z,55.97
2023-05-06T04:56:35.714Z,56.46
2023-05-06T04:59:07.123Z,56.38
2023-05-06T05:01:37.677Z,56.06
2023-05-06T05:04:06.740Z,56.49
2023-05-06T05:06:36.328Z,55.80
2023-05-06T05:09:05.750Z,55.93
2023-05-06T05:11:38.027Z,56.56
2023-05-06T05:14:07.423Z,56.21
2023-05-06T05:16:38.460Z,56.13
2023-05-06T05:19:09.374Z,56.35
2023-05-06T05:21:39.286Z,56.01
2023-05-06T05:24:11.257Z,56.50
2023-05-06T05:26:40.705Z,56.30
2023-05-06T05:29:09.871Z,56.27
2023-05-06T05:31:40.185Z,55.95
2023-05-06T05:34:10.811Z,56.54
2023-05-06T05:36:41.042Z,56.10
2023-05-06T05:39:11.767Z,55.89
2023-05-06T05:41:45.278Z,56.01
2023-05-06T05:44:14.908Z,56.20
2023-05-06T05:46:44.473Z,56.43
2023-05-06T05:49:15.864Z,56.28
2023-05-06T05:51:45.121Z,56.14
2023-05-06T05:54:16.210Z,56.32
2023-05-06T05:56:45.203Z,56.13
2023-05-06T05:59:14.542Z,56.34
2023-05-06T06:01:44.948Z,56.28
2023-05-06T06:04:13.835Z,56.74
2023-05-06T06:06:43.318Z,56.12
2023-05-06T06:09:12.642Z,56.21
2023-05-06T06:11:41.837Z,56.28
2023-05-06T06:14:11.173Z,56.34
2023-05-06T06:16:41.220Z,56.20
2023-05-06T06:19:10.632Z,56.12
2023-05-06T06:21:39.497Z,55.85
2023-05-06T06:24:08.636Z,56.07
2023-05-06T06:26:37.637Z,55.44
2023-05-06T06:29:07.402Z,55.64
2023-05-06T06:31:41.230Z,55.37
2023-05-06T06:34:12.088Z,55.33
2023-05-06T06:36:44.664Z,55.18
2023-05-06T06:39:14.641Z,55.24
2023-05-06T06:41:43.585Z,55.35
2023-05-06T06:44:12.560Z,54.73
2023-05-06T06:46:42.356Z,54.37
2023-05-06T06:49:11.185Z,54.43
2023-05-06T06:51:40.841Z,54.85
2023-05-06T06:54:10.553Z,54.58
2023-05-06T06:56:39.771Z,54.33
2023-05-06T06:59:09.136Z,54.04
2023-05-06T07:01:38.934Z,54.44
2023-05-06T07:04:08.714Z,54.34
2023-05-06T07:06:37.991Z,54.56
2023-05-06T07:09:06.830Z,54.00
2023-05-06T07:11:36.375Z,53.95
2023-05-06T07:14:05.552Z,54.04
2023-05-06T07:16:38.271Z,54.10
2023-05-06T07:19:09.709Z,54.08
2023-05-06T07:21:39.647Z,53.80
2023-05-06T07:24:09.693Z,53.46
2023-05-06T07:26:39.671Z,53.67
2023-05-06T07:29:09.198Z,53.58
2023-05-06T07:31:38.606Z,53.52
2023-05-06T07:34:07.738Z,52.80
2023-05-06T07:36:40.302Z,53.10
2023-05-06T07:39:11.020Z,53.27
2023-05-06T07:41:40.301Z,52.45
2023-05-06T07:44:09.409Z,52.46
2023-05-06T07:46:39.053Z,52.80
2023-05-06T07:49:08.053Z,52.11
2023-05-06T07:51:36.984Z,52.58
2023-05-06T07:54:06.767Z,51.78
2023-05-06T07:56:35.921Z,51.84
2023-05-06T07:59:04.757Z,51.46
2023-05-06T08:01:36.134Z,52.04
2023-05-06T08:04:05.904Z,51.47
2023-05-06T08:06:34.833Z,51.97
2023-05-06T08:09:04.054Z,51.85
2023-05-06T08:11:38.485Z,51.52
2023-05-06T08:14:07.487Z,51.50
2023-05-06T08:16:37.477Z,51.82
2023-05-06T08:19:06.340Z,51.81
2023-05-06T08:21:35.250Z,51.63
2023-05-06T08:24:04.767Z,51.18
2023-05-06T08:26:34.640Z,51.15
2023-05-06T08:29:03.814Z,51.27
2023-05-06T08:31:36.476Z,51.26
2023-05-06T08:34:05.852Z,51.08
2023-05-06T08:36:34.713Z,50.69
2023-05-06T08:39:03.549Z,50.83
2023-05-06T08:41:36.812Z,50.59
2023-05-06T08:44:07.767Z,50.65
2023-05-06T08:46:37.683Z,50.98
2023-05-06T08:49:06.853Z,50.46
2023-05-06T08:51:37.694Z,50.70
2023-05-06T08:54:09.741Z,50.60
2023-05-06T08:56:52.804Z,50.01
2023-05-06T08:59:25.982Z,50.88
2023-05-06T09:01:55.014Z,50.72
2023-05-06T09:04:24.296Z,50.42
2023-05-06T09:06:53.446Z,50.05
2023-05-06T09:09:23.197Z,50.61
2023-05-06T09:11:54.675Z,50.56
2023-05-06T09:14:24.225Z,50.38
2023-05-06T09:16:53.634Z,49.90
2023-05-06T09:19:23.763Z,50.30
2023-05-06T09:21:53.216Z,50.33
2023-05-06T09:24:22.256Z,50.56
2023-05-06T09:26:54.561Z,49.99
2023-05-06T09:29:23.645Z,50.20
2023-05-06T09:31:55.181Z,50.32
2023-05-06T09:34:24.817Z,50.01
2023-05-06T09:36:56.583Z,49.81
2023-05-06T09:39:27.238Z,50.29
2023-05-06T09:41:56.809Z,49.59
2023-05-06T09:44:27.456Z,49.71
2023-05-06T09:46:56.542Z,50.26
2023-05-06T09:49:26.357Z,50.58
2023-05-06T09:51:57.272Z,50.13
2023-05-06T09:54:28.650Z,50.06
2023-05-06T09:57:00.895Z,50.83
2023-05-06T09:59:32.263Z,50.52
2023-05-06T10:02:04.800Z,50.78
2023-05-06T10:04:36.948Z,50.85
2023-05-06T10:07:07.301Z,51.00
2023-05-06T10:09:38.874Z,50.55
2023-05-06T10:12:09.809Z,50.25
2023-05-06T10:14:39.307Z,50.24
2023-05-06T10:17:11.579Z,50.83
2023-05-06T10:19:43.864Z,50.94
2023-05-06T10:22:21.860Z,50.19
2023-05-06T10:24:59.145Z,50.51
2023-05-06T10:27:32.249Z,50.49
2023-05-06T10:30:01.998Z,50.24
2023-05-06T10:32:33.230Z,50.16
2023-05-06T10:35:10.559Z,50.34
2023-05-06T10:37:41.843Z,50.41
2023-05-06T10:40:12.769Z,50.06
2023-05-06T10:42:41.759Z,50.45
2023-05-06T10:45:11.742Z,49.77
2023-05-06T10:48:08.833Z,49.85
2023-05-06T10:50:36.911Z,50.30
2023-05-06T10:53:05.800Z,50.04
2023-05-06T10:55:36.109Z,49.77
2023-05-06T10:58:15.244Z,49.93
2023-05-06T11:00:56.749Z,49.59
2023-05-06T11:03:27.088Z,49.56
2023-05-06T11:05:56.296Z,49.64
2023-05-06T11:08:26.706Z,49.25
2023-05-06T11:10:55.777Z,49.95
2023-05-06T11:13:26.989Z,49.53
2023-05-06T11:15:57.598Z,49.20
2023-05-06T11:18:44.347Z,48.98
2023-05-06T11:21:40.079Z,49.20
2023-05-06T11:24:11.565Z,49.26
2023-05-06T11:26:42.809Z,49.17
2023-05-06T11:29:11.896Z,49.77
2023-05-06T11:31:42.656Z,49.33
2023-05-06T11:34:14.005Z,49.95
2023-05-06T11:36:52.653Z,49.86
2023-05-06T11:39:21.588Z,49.41
2023-05-06T11:41:52.323Z,50.26
2023-05-06T11:44:28.972Z,50.17
2023-05-06T11:47:02.509Z,50.18
2023-05-06T11:49:37.027Z,50.56
2023-05-06T11:52:10.111Z,50.32
2023-05-06T11:54:41.904Z,50.83
2023-05-06T11:57:11.104Z,51.13
2023-05-06T11:59:41.597Z,51.60
2023-05-06T12:02:12.487Z,51.83
2023-05-06T12:04:43.562Z,51.73
2023-05-06T12:07:14.347Z,51.77
2023-05-06T12:09:46.747Z,51.93
2023-05-06T12:12:21.196Z,52.45
2023-05-06T12:14:50.622Z,52.54
2023-05-06T12:17:19.814Z,52.77
2023-05-06T12:19:48.925Z,52.62
2023-05-06T12:22:19.683Z,52.61
2023-05-06T12:24:49.577Z,52.86
2023-05-06T12:27:35.244Z,53.48
2023-05-06T12:30:08.565Z,53.47
2023-05-06T12:32:55.961Z,53.74
2023-05-06T12:35:29.193Z,53.81
2023-05-06T12:38:11.891Z,53.80
2023-05-06T12:40:41.733Z,54.20
2023-05-06T12:43:12.300Z,54.34
2023-05-06T12:45:41.532Z,54.39
2023-05-06T12:48:16.740Z,54.54
2023-05-06T12:50:47.432Z,54.74
2023-05-06T12:53:32.897Z,54.97
2023-05-06T12:56:01.990Z,55.27
2023-05-06T12:58:36.821Z,55.23
2023-05-06T13:01:07.154Z,55.60
2023-05-06T13:03:38.592Z,55.94
2023-05-06T13:06:08.329Z,56.31
2023-05-06T13:08:37.356Z,56.47
2023-05-06T13:11:07.406Z,56.51
2023-05-06T13:13:36.398Z,56.84
2023-05-06T13:16:09.533Z,57.13
2023-05-06T13:18:40.945Z,57.25
2023-05-06T13:21:09.860Z,57.28
2023-05-06T13:23:46.263Z,57.57
2023-05-06T13:26:16.797Z,57.62
2023-05-06T13:28:45.844Z,57.74
2023-05-06T13:31:14.973Z,58.13
2023-05-06T13:33:43.979Z,58.26
2023-05-06T13:36:13.034Z,58.71
2023-05-06T13:38:42.093Z,58.70
2023-05-06T13:41:10.902Z,59.03
2023-05-06T13:43:39.963Z,59.16
2023-05-06T13:46:09.867Z,59.53
2023-05-06T13:48:39.011Z,59.64
2023-05-06T13:51:08.219Z,59.77
2023-05-06T13:53:38.910Z,59.42
2023-05-06T13:56:08.097Z,59.69
2023-05-06T13:58:37.203Z,60.31
2023-05-06T14:01:07.460Z,60.37
2023-05-06T14:03:36.587Z,60.60
2023-05-06T14:06:08.038Z,60.66
2023-05-06T14:08:37.162Z,60.15
2023-05-06T14:11:07.435Z,60.72
2023-05-06T14:13:36.896Z,60.89
2023-05-06T14:16:07.258Z,61.14
2023-05-06T14:18:36.259Z,61.21
2023-05-06T14:21:06.180Z,61.18
2023-05-06T14:23:36.137Z,61.52
2023-05-06T14:26:05.907Z,61.44
2023-05-06T14:28:35.258Z,61.24
2023-05-06T14:31:05.114Z,61.72
2023-05-06T14:33:34.125Z,61.66
2023-05-06T14:36:03.096Z,61.87
2023-05-06T14:38:35.028Z,61.78
2023-05-06T14:41:04.538Z,62.01
2023-05-06T14:43:33.836Z,61.94
2023-05-06T14:46:02.697Z,62.28
2023-05-06T14:48:34.194Z,62.18
2023-05-06T14:51:04.012Z,62.67
2023-05-06T14:53:35.226Z,62.78
2023-05-06T14:56:07.295Z,62.50
2023-05-06T14:58:36.190Z,62.93
2023-05-06T15:01:06.481Z,62.89
2023-05-06T15:03:36.016Z,63.22
2023-05-06T15:06:06.324Z,63.37
2023-05-06T15:08:35.918Z,63.04
2023-05-06T15:11:05.568Z,63.25
2023-05-06T15:13:34.661Z,63.48
2023-05-06T15:16:04.082Z,63.48
2023-05-06T15:18:33.968Z,62.94
2023-05-06T15:21:03.118Z,63.39
2023-05-06T15:23:34.959Z,63.27
2023-05-06T15:26:04.236Z,63.74
2023-05-06T15:28:33.935Z,63.23
2023-05-06T15:31:06.044Z,63.48
2023-05-06T15:33:35.323Z,63.73
2023-05-06T15:36:06.747Z,63.81
2023-05-06T15:38:59.916Z,63.76
2023-05-06T15:41:32.202Z,64.39
2023-05-06T15:44:03.647Z,64.32
2023-05-06T15:46:35.239Z,64.50
2023-05-06T15:51:37.144Z,64.60
2023-05-06T15:54:06.419Z,64.40
2023-05-06T15:56:40.766Z,64.52
2023-05-06T15:59:11.654Z,64.34
2023-05-06T16:04:13.201Z,64.84
2023-05-06T16:06:42.942Z,64.67
2023-05-06T16:09:11.953Z,65.01
2023-05-06T16:11:40.926Z,64.92
2023-05-06T16:14:10.035Z,64.87
2023-05-06T16:16:39.298Z,64.98
2023-05-06T16:19:09.245Z,65.63
2023-05-06T16:21:38.541Z,65.52
2023-05-06T16:24:08.686Z,65.27
2023-05-06T16:26:38.390Z,65.32
2023-05-06T16:29:07.630Z,65.39
2023-05-06T16:31:39.476Z,65.50
2023-05-06T16:34:08.404Z,65.79
2023-05-06T16:36:37.758Z,65.69
2023-05-06T16:39:08.764Z,65.83
2023-05-06T16:41:38.590Z,65.61
2023-05-06T16:44:08.004Z,66.24
2023-05-06T16:46:38.257Z,65.75
2023-05-06T16:49:07.921Z,66.09
2023-05-06T16:51:36.916Z,65.90
2023-05-06T16:54:06.529Z,66.42
2023-05-06T16:56:48.099Z,66.29
2023-05-06T16:59:22.416Z,66.26
2023-05-06T17:01:51.621Z,66.56
2023-05-06T17:04:22.349Z,66.28
2023-05-06T17:06:51.757Z,66.01
2023-05-06T17:09:21.783Z,66.60
2023-05-06T17:11:51.297Z,66.33
2023-05-06T17:14:20.465Z,66.27
2023-05-06T17:16:50.707Z,66.73
2023-05-06T17:19:19.986Z,66.74
2023-05-06T17:21:49.108Z,66.71
2023-05-06T17:24:18.211Z,66.49
2023-05-06T17:26:48.043Z,66.58
2023-05-06T17:29:17.292Z,66.93
2023-05-06T17:31:46.491Z,67.09
2023-05-06T17:34:16.041Z,66.85
2023-05-06T17:36:45.233Z,67.29
2023-05-06T17:39:14.627Z,67.48
2023-05-06T17:41:43.693Z,67.14
2023-05-06T17:44:12.642Z,67.80
2023-05-06T17:46:41.943Z,67.79
2023-05-06T17:49:11.116Z,67.06
2023-05-06T17:51:42.034Z,67.77
2023-05-06T17:54:11.169Z,67.78
2023-05-06T17:56:40.135Z,67.42
2023-05-06T17:59:10.964Z,67.32
2023-05-06T18:01:40.342Z,67.94
2023-05-06T18:04:09.720Z,67.49
2023-05-06T18:06:38.695Z,67.56
2023-05-06T18:09:08.156Z,68.15
2023-05-06T18:11:37.830Z,68.11
2023-05-06T18:14:07.584Z,68.58
2023-05-06T18:16:38.404Z,68.30
2023-05-06T18:19:07.331Z,67.72
2023-05-06T18:21:36.770Z,67.82
2023-05-06T18:24:16.184Z,67.98
2023-05-06T18:26:46.386Z,68.13
2023-05-06T18:29:15.589Z,68.46
2023-05-06T18:31:44.683Z,68.11
2023-05-06T18:34:14.116Z,68.64
2023-05-06T18:36:43.089Z,68.06
2023-05-06T18:39:11.993Z,68.87
2023-05-06T18:41:41.560Z,68.36
2023-05-06T18:44:11.992Z,68.16
2023-05-06T18:46:40.989Z,69.04
2023-05-06T18:49:10.304Z,68.31
2023-05-06T18:51:39.422Z,68.43
2023-05-06T18:54:09.120Z,68.91
2023-05-06T18:56:38.277Z,69.05
2023-05-06T18:59:07.692Z,68.71
2023-05-06T19:01:37.642Z,68.92
2023-05-06T19:04:07.489Z,69.02
2023-05-06T19:06:37.854Z,69.32
2023-05-06T19:09:07.772Z,68.87
2023-05-06T19:11:37.011Z,68.76
2023-05-06T19:14:08.273Z,68.80
2023-05-06T19:16:38.082Z,68.80
2023-05-06T19:19:07.159Z,69.10
2023-05-06T19:21:37.923Z,69.01
2023-05-06T19:24:07.272Z,69.11
2023-05-06T19:26:38.239Z,69.22
2023-05-06T19:29:07.341Z,69.44
2023-05-06T19:31:37.623Z,69.41
2023-05-06T19:34:06.960Z,69.45
2023-05-06T19:36:36.045Z,69.56
2023-05-06T19:39:05.206Z,69.62
2023-05-06T19:41:35.388Z,69.98
2023-05-06T19:44:04.639Z,69.61
2023-05-06T19:46:36.237Z,69.96
2023-05-06T19:49:05.943Z,69.68
2023-05-06T19:51:34.811Z,69.96
2023-05-06T19:54:04.029Z,69.33
2023-05-06T19:56:35.825Z,69.47
2023-05-06T19:59:04.963Z,69.38
2023-05-06T20:01:36.270Z,70.05
2023-05-06T20:04:05.812Z,69.87
2023-05-06T20:06:34.959Z,69.67
2023-05-06T20:09:04.246Z,69.75
2023-05-06T20:11:34.389Z,69.75
2023-05-06T20:14:04.161Z,69.94
2023-05-06T20:16:36.079Z,69.74
2023-05-06T20:19:05.726Z,70.30
2023-05-06T20:21:34.747Z,69.85
2023-05-06T20:24:04.265Z,70.17
2023-05-06T20:26:36.065Z,70.29
2023-05-06T20:29:05.137Z,69.75
2023-05-06T20:31:38.314Z,70.00
2023-05-06T20:34:08.029Z,70.67
2023-05-06T20:36:37.074Z,69.70
2023-05-06T20:39:07.092Z,69.87
2023-05-06T20:41:36.522Z,69.83
2023-05-06T20:44:06.025Z,69.83
2023-05-06T20:46:37.738Z,69.87
2023-05-06T20:49:07.244Z,70.46
2023-05-06T20:51:36.867Z,69.90
2023-05-06T20:54:09.492Z,70.19
2023-05-06T20:56:39.056Z,70.05
2023-05-06T20:59:10.728Z,70.74
2023-05-06T21:01:39.749Z,70.53
2023-05-06T21:04:10.430Z,70.57
2023-05-06T21:06:39.434Z,70.32
2023-05-06T21:09:09.666Z,70.84
2023-05-06T21:11:39.071Z,70.93
2023-05-06T21:14:08.395Z,70.09
2023-05-06T21:16:39.212Z,70.36
2023-05-06T21:19:08.368Z,70.88
2023-05-06T21:21:37.915Z,70.80
2023-05-06T21:24:08.369Z,70.56
2023-05-06T21:26:39.446Z,70.24
2023-05-06T21:29:08.640Z,70.86
2023-05-06T21:31:40.064Z,70.34
2023-05-06T21:34:11.759Z,70.76
2023-05-06T21:36:41.875Z,70.91
2023-05-06T21:39:13.255Z,70.50
2023-05-06T21:41:42.660Z,70.73
2023-05-06T21:44:12.036Z,70.78
2023-05-06T21:46:42.275Z,70.80
2023-05-06T21:49:11.293Z,71.00
2023-05-06T21:51:40.861Z,71.13
2023-05-06T21:54:10.187Z,70.78
2023-05-06T21:56:39.456Z,70.52
2023-05-06T21:59:09.026Z,70.98
2023-05-06T22:01:39.079Z,70.59
2023-05-06T22:04:12.545Z,70.87
2023-05-06T22:06:41.549Z,70.74
2023-05-06T22:09:11.329Z,70.62
2023-05-06T22:11:43.206Z,70.61
2023-05-06T22:14:12.597Z,70.62
2023-05-06T22:16:42.577Z,71.33
2023-05-06T22:19:12.856Z,70.75
2023-05-06T22:21:42.417Z,70.67
2023-05-06T22:24:11.616Z,71.14
2023-05-06T22:26:40.994Z,70.65
2023-05-06T22:29:10.612Z,71.22
2023-05-06T22:31:39.947Z,71.06
2023-05-06T22:34:09.872Z,71.32
2023-05-06T22:36:39.465Z,71.53
2023-05-06T22:39:10.962Z,70.64
2023-05-06T22:41:40.218Z,71.64
2023-05-06T22:44:10.267Z,71.49
2023-05-06T22:46:39.914Z,71.51
2023-05-06T22:49:09.479Z,71.18
2023-05-06T22:51:38.424Z,70.84
2023-05-06T22:54:07.352Z,71.36
2023-05-06T22:56:36.250Z,71.04
2023-05-06T22:59:05.662Z,71.22
2023-05-06T23:01:34.575Z,71.12
2023-05-06T23:04:03.618Z,71.70
2023-05-06T23:06:33.540Z,71.06
2023-05-06T23:09:02.491Z,71.36
2023-05-06T23:11:33.799Z,70.98
2023-05-06T23:14:04.898Z,70.86
2023-05-06T23:16:34.729Z,71.38
2023-05-06T23:19:03.744Z,71.66
2023-05-06T23:21:33.819Z,71.43
2023-05-06T23:24:02.983Z,71.43
2023-05-06T23:26:32.551Z,71.09
2023-05-06T23:29:01.624Z,71.54
2023-05-06T23:31:31.086Z,71.34
2023-05-06T23:34:02.914Z,71.34
2023-05-06T23:36:33.644Z,71.02
2023-05-06T23:39:02.870Z,71.52
2023-05-06T23:41:32.555Z,71.74
2023-05-06T23:44:01.421Z,71.74
2023-05-06T23:46:34.515Z,71.73
2023-05-06T23:49:04.177Z,71.90
2023-05-06T23:51:34.946Z,71.78
2023-05-06T23:54:04.053Z,71.23
2023-05-06T23:56:33.700Z,72.02
2023-05-06T23:59:03.675Z,71.54
